Time;durP1;ratioP1;P1;durP2;ratioP2;P2;SDS_P1;SDS_P2;PMS_P1;PMS_P2;Temp;Humidity;BMP_temperature;BMP_pressure;BME280_temperature;BME280_humidity;BME280_pressure;Samples;Min_cycle;Max_cycle;Signal;HPM_P1;HPM_P2
2021/03/10 00:01:29;;;;;;;12.77;6.27;;;;;;;-4.61;60.23;95744.92;1754045;82;21875;-75
2021/03/10 00:03:57;;;;;;;11.27;5.23;;;;;;;-4.63;59.91;95745.67;1754266;82;21821;-75
2021/03/10 00:06:24;;;;;;;11.20;5.37;;;;;;;-4.60;59.73;95745.79;1754090;82;21849;-75
2021/03/10 00:08:52;;;;;;;9.07;5.27;;;;;;;-4.65;59.97;95742.14;1754182;82;22248;-75
2021/03/10 00:11:20;;;;;;;10.20;5.27;;;;;;;-4.69;60.20;95735.09;1754016;82;22350;-75
2021/03/10 00:13:47;;;;;;;8.93;4.97;;;;;;;-4.79;61.24;95736.41;1754279;82;21845;-75
2021/03/10 00:16:14;;;;;;;10.77;5.20;;;;;;;-4.89;60.53;95735.55;1754175;82;21829;-75
2021/03/10 00:18:42;;;;;;;8.77;5.13;;;;;;;-4.81;60.22;95735.48;1754392;82;21828;-74
2021/03/10 00:21:10;;;;;;;8.87;5.33;;;;;;;-4.83;60.11;95735.82;1754081;82;21833;-75
2021/03/10 00:23:38;;;;;;;11.77;5.47;;;;;;;-4.83;60.04;95737.11;1754762;81;22236;-75
2021/03/10 00:26:06;;;;;;;8.53;4.83;;;;;;;-4.80;59.93;95735.94;1753913;82;22338;-75
2021/03/10 00:28:34;;;;;;;10.30;5.53;;;;;;;-4.98;61.64;95733.47;1754148;82;21809;-75
2021/03/10 00:31:01;;;;;;;11.13;5.20;;;;;;;-5.07;60.40;95733.94;1754122;81;21852;-75
2021/03/10 00:33:30;;;;;;;9.33;5.27;;;;;;;-5.14;60.82;95737.47;1753995;82;21821;-75
2021/03/10 00:35:58;;;;;;;12.07;5.40;;;;;;;-5.41;61.39;95730.73;1754167;82;22149;-75
2021/03/10 00:38:25;;;;;;;12.30;5.43;;;;;;;-5.41;61.39;95730.73;1754075;82;21795;-75
2021/03/10 00:40:53;;;;;;;9.00;5.30;;;;;;;-5.39;61.62;95729.99;1754356;81;21845;-75
2021/03/10 00:43:21;;;;;;;11.07;5.80;;;;;;;-5.45;62.97;95730.98;1754369;82;21797;-75
2021/03/10 00:45:48;;;;;;;10.07;5.77;;;;;;;-5.47;63.32;95728.37;1754125;82;21706;-75
2021/03/10 00:48:19;;;;;;;11.80;6.07;;;;;;;-5.27;61.91;95725.36;1754241;82;22259;-75
2021/03/10 00:50:46;;;;;;;10.70;5.70;;;;;;;-5.27;61.91;95725.36;1753927;81;21870;-75
2021/03/10 00:53:14;;;;;;;11.07;5.70;;;;;;;-5.18;61.30;95716.30;1754359;81;21841;-75
2021/03/10 00:55:41;;;;;;;9.60;5.03;;;;;;;-5.18;61.30;95716.30;1754178;82;21842;-75
2021/03/10 00:58:09;;;;;;;8.20;4.53;;;;;;;-5.58;63.67;95706.84;1754157;82;21877;-75
2021/03/10 01:00:37;;;;;;;9.53;4.80;;;;;;;-5.69;62.91;95708.94;1754160;82;21659;-75
2021/03/10 01:03:05;;;;;;;10.63;5.47;;;;;;;-5.69;62.91;95708.94;1754203;82;21829;-75
2021/03/10 01:05:35;;;;;;;9.33;5.10;;;;;;;-5.79;63.53;95712.78;1751462;82;21821;-75
2021/03/10 01:08:03;;;;;;;9.00;4.73;;;;;;;-5.91;63.57;95703.23;1754043;82;21632;-75
2021/03/10 01:10:31;;;;;;;8.07;4.93;;;;;;;-5.91;63.36;95710.52;1754190;82;21832;-75
2021/03/10 01:12:58;;;;;;;9.70;5.20;;;;;;;-5.91;63.72;95700.24;1754498;82;21666;-75
2021/03/10 01:15:26;;;;;;;12.03;5.87;;;;;;;-5.91;63.72;95700.24;1754180;82;22265;-75
2021/03/10 01:17:54;;;;;;;10.53;5.57;;;;;;;-5.79;63.38;95698.64;1754513;81;21834;-75
2021/03/10 01:20:23;;;;;;;12.27;5.60;;;;;;;-5.84;64.03;95695.41;1754367;82;22212;-75
2021/03/10 01:22:51;;;;;;;13.43;5.63;;;;;;;-5.82;63.89;95692.09;1754393;82;21971;-75
2021/03/10 01:25:20;;;;;;;9.27;5.70;;;;;;;-5.71;63.53;95678.02;1727331;82;21785;-75
2021/03/10 01:27:48;;;;;;;9.73;5.70;;;;;;;-5.54;63.36;95691.62;1754275;82;22116;-75
2021/03/10 01:30:19;;;;;;;10.83;5.43;;;;;;;-5.54;63.36;95691.62;1754379;82;21655;-75
2021/03/10 01:32:46;;;;;;;9.07;5.03;;;;;;;-5.55;62.60;95687.28;1754510;82;21668;-75
2021/03/10 01:35:14;;;;;;;4.20;2.97;;;;;;;-5.57;62.50;95694.07;1754375;81;21837;-75
2021/03/10 01:37:42;;;;;;;6.80;4.07;;;;;;;-5.69;62.97;95683.23;1754066;82;22273;-75
2021/03/10 01:40:13;;;;;;;10.00;5.03;;;;;;;-6.14;64.19;95692.80;1754176;81;21833;-75
2021/03/10 01:42:43;;;;;;;10.03;5.50;;;;;;;-6.02;64.00;95693.78;1754224;81;21529;-75
2021/03/10 01:45:13;;;;;;;9.90;5.43;;;;;;;-6.02;64.00;95693.78;1754289;82;21675;-75
2021/03/10 01:47:46;;;;;;;9.70;5.50;;;;;;;-5.99;63.65;95695.61;1754519;81;21743;-74
2021/03/10 01:50:19;;;;;;;9.27;5.10;;;;;;;-6.00;64.14;95696.41;1746828;81;22157;-74
2021/03/10 01:52:47;;;;;;;10.45;5.42;;;;;;;-6.00;64.14;95696.41;1740699;82;21581;-75
2021/03/10 01:55:15;;;;;;;13.10;6.47;;;;;;;-6.01;64.61;95694.25;1740170;82;21268;-75
2021/03/10 01:57:44;;;;;;;10.00;5.03;;;;;;;-5.96;64.10;95700.47;1740359;82;21639;-75
2021/03/10 02:00:13;;;;;;;9.47;5.17;;;;;;;-5.89;64.43;95702.89;1719441;82;21598;-75
2021/03/10 02:02:42;;;;;;;12.50;6.00;;;;;;;-5.81;63.94;95693.84;1740336;82;21596;-75
2021/03/10 02:05:21;;;;;;;10.97;5.67;;;;;;;-5.81;63.94;95693.84;1739990;82;21789;-74
2021/03/10 02:08:17;;;;;;;10.57;5.43;;;;;;;-5.79;63.14;95683.23;1740209;82;21962;-74
2021/03/10 02:11:17;;;;;;;10.27;5.63;;;;;;;-5.73;63.36;95674.49;1740400;82;21726;-75
2021/03/10 02:14:02;;;;;;;9.77;5.40;;;;;;;-5.76;63.05;95675.65;1739754;82;21558;-74
2021/03/10 02:16:35;;;;;;;11.23;5.00;;;;;;;-5.76;63.05;95675.65;1740170;82;21744;-74
2021/03/10 02:19:24;;;;;;;17.67;5.40;;;;;;;-5.83;62.74;95679.16;1740142;82;21741;-74
2021/03/10 02:22:06;;;;;;;9.77;4.87;;;;;;;-5.83;62.74;95679.16;1740383;82;21629;-74
2021/03/10 02:25:02;;;;;;;10.07;4.93;;;;;;;-6.11;64.51;95688.21;1731050;82;21529;-74
2021/03/10 02:27:46;;;;;;;12.40;6.23;;;;;;;-6.21;64.17;95679.61;1740096;82;21679;-75
2021/03/10 02:30:21;;;;;;;6.57;4.23;;;;;;;-6.29;64.33;95679.25;1740418;82;22096;-74
2021/03/10 02:33:03;;;;;;;8.20;4.90;;;;;;;-6.31;66.52;95680.87;1740105;82;21675;-75
2021/03/10 02:35:32;;;;;;;9.77;5.57;;;;;;;-6.45;66.87;95680.61;1740243;82;21476;-75
2021/03/10 02:38:02;;;;;;;9.83;5.20;;;;;;;-6.25;67.08;95676.00;1740218;82;21631;-74
2021/03/10 02:40:31;;;;;;;10.00;4.93;;;;;;;-6.23;66.23;95677.38;1740432;82;21494;-74
2021/03/10 02:42:59;;;;;;;7.70;4.87;;;;;;;-6.09;66.15;95685.31;1740398;82;21683;-74
2021/03/10 02:45:28;;;;;;;9.23;5.50;;;;;;;-6.09;66.15;95685.31;1740416;81;22187;-74
2021/03/10 02:47:59;;;;;;;7.27;4.40;;;;;;;-5.92;65.31;95677.94;1740232;81;21545;-74
2021/03/10 02:50:28;;;;;;;10.93;5.77;;;;;;;-5.98;65.05;95678.97;1721241;82;21544;-74
2021/03/10 02:52:59;;;;;;;12.47;5.43;;;;;;;-5.98;65.05;95678.97;1750638;81;21659;-74
2021/03/10 02:55:27;;;;;;;10.27;5.70;;;;;;;-5.92;64.70;95683.46;1750652;82;21528;-74
2021/03/10 02:57:54;;;;;;;10.23;5.57;;;;;;;-5.92;64.70;95683.46;1750400;82;21768;-74
2021/03/10 03:00:24;;;;;;;10.13;5.27;;;;;;;-5.97;64.62;95676.89;1750564;82;21601;-74
2021/03/10 03:02:52;;;;;;;8.03;4.77;;;;;;;-6.01;64.49;95676.67;1750506;82;21514;-74
2021/03/10 03:05:20;;;;;;;8.97;5.17;;;;;;;-6.18;65.08;95681.91;1750388;82;21903;-74
2021/03/10 03:07:49;;;;;;;8.83;5.10;;;;;;;-6.18;65.08;95681.91;1750628;81;21529;-74
2021/03/10 03:10:21;;;;;;;14.37;6.37;;;;;;;-6.21;66.78;95682.17;1750504;82;21460;-74
2021/03/10 03:12:51;;;;;;;11.50;5.97;;;;;;;-6.17;66.78;95674.70;1750443;82;21716;-74
2021/03/10 03:15:22;;;;;;;14.33;5.80;;;;;;;-6.14;66.85;95676.52;1750706;82;21594;-74
2021/03/10 03:17:51;;;;;;;10.73;5.70;;;;;;;-6.17;65.73;95676.39;1750925;82;21483;-74
2021/03/10 03:20:21;;;;;;;7.90;4.40;;;;;;;-6.17;65.73;95676.39;1750256;82;21707;-74
2021/03/10 03:22:53;;;;;;;7.80;4.20;;;;;;;-6.05;66.09;95669.22;1750241;82;21684;-74
2021/03/10 03:25:27;;;;;;;11.63;5.60;;;;;;;-6.11;65.28;95666.38;1750584;82;21546;-74
2021/03/10 03:28:00;;;;;;;7.63;4.77;;;;;;;-6.18;65.79;95672.91;1750402;82;21912;-75
2021/03/10 03:30:32;;;;;;;9.78;5.70;;;;;;;-6.18;65.79;95672.91;1750270;82;21667;-74
2021/03/10 03:33:01;;;;;;;10.57;5.63;;;;;;;-6.12;66.00;95674.50;1750897;81;21117;-75
2021/03/10 03:35:30;;;;;;;13.17;6.77;;;;;;;-6.17;65.81;95674.70;1719860;82;21581;-75
2021/03/10 03:37:59;;;;;;;10.97;5.20;;;;;;;-6.21;66.49;95681.77;1750700;81;21989;-74
2021/03/10 03:40:27;;;;;;;7.03;4.30;;;;;;;-6.10;66.05;95676.73;1750577;82;21596;-74
2021/03/10 03:42:55;;;;;;;8.23;4.87;;;;;;;-6.12;65.67;95679.64;1750306;82;21711;-74
2021/03/10 03:45:23;;;;;;;10.40;4.63;;;;;;;-6.22;66.78;95678.73;1750451;81;22202;-74
2021/03/10 03:47:53;;;;;;;9.47;5.57;;;;;;;-6.35;65.96;95670.88;1750464;81;22151;-74
2021/03/10 03:50:22;;;;;;;10.80;4.60;;;;;;;-6.35;65.96;95670.88;1747450;81;21600;-74
2021/03/10 03:52:51;;;;;;;9.80;4.63;;;;;;;-6.33;67.19;95676.05;1740340;82;21612;-74
2021/03/10 03:55:19;;;;;;;9.83;4.73;;;;;;;-6.51;67.29;95671.35;1740185;82;21635;-74
2021/03/10 03:57:47;;;;;;;7.20;4.80;;;;;;;-6.36;67.01;95681.05;1739967;82;21427;-74
2021/03/10 04:00:20;;;;;;;10.40;4.87;;;;;;;-6.29;67.12;95670.27;1740245;81;21517;-74
2021/03/10 04:02:48;;;;;;;7.67;4.95;;;;;;;-6.12;66.56;95681.33;1740198;82;21479;-74
2021/03/10 04:05:19;;;;;;;8.60;5.00;;;;;;;-6.02;65.89;95674.52;1739917;82;21573;-74
2021/03/10 04:07:58;;;;;;;13.77;5.37;;;;;;;-5.90;66.09;95675.42;1737653;82;21528;-74
2021/03/10 04:10:33;;;;;;;12.03;4.90;;;;;;;-5.98;66.35;95678.97;1740083;82;21501;-71
2021/03/10 04:13:02;;;;;;;9.77;4.97;;;;;;;-5.97;65.85;95677.27;1740281;82;22177;-74
2021/03/10 04:15:32;;;;;;;10.97;5.40;;;;;;;-5.92;65.52;95682.17;1740134;82;22163;-74
2021/03/10 04:18:02;;;;;;;10.03;4.83;;;;;;;-5.90;66.01;95680.56;1739960;82;21729;-74
2021/03/10 04:20:30;;;;;;;7.60;4.30;;;;;;;-5.83;65.36;95675.30;1739894;82;21818;-74
2021/03/10 04:22:58;;;;;;;8.37;4.43;;;;;;;-5.88;65.66;95681.11;1740357;82;21620;-74
2021/03/10 04:25:25;;;;;;;9.87;4.60;;;;;;;-5.88;65.66;95681.11;1740015;82;21721;-74
2021/03/10 04:27:53;;;;;;;9.03;4.63;;;;;;;-6.06;65.44;95681.59;1740088;82;21710;-74
2021/03/10 04:30:22;;;;;;;6.17;3.57;;;;;;;-6.14;65.50;95678.68;1740340;82;21778;-74
2021/03/10 04:32:50;;;;;;;5.87;3.90;;;;;;;-6.15;65.41;95682.07;1740342;82;21629;-74
2021/03/10 04:35:19;;;;;;;7.37;4.57;;;;;;;-6.25;66.55;95670.86;1740116;82;21775;-74
2021/03/10 04:37:48;;;;;;;7.83;3.67;;;;;;;-6.32;68.26;95672.70;1740348;82;21720;-74
2021/03/10 04:40:16;;;;;;;8.33;4.23;;;;;;;-6.29;66.83;95675.41;1739909;82;22199;-74
2021/03/10 04:42:45;;;;;;;10.93;4.63;;;;;;;-6.23;66.92;95676.09;1740089;82;21624;-74
2021/03/10 04:45:13;;;;;;;9.20;4.83;;;;;;;-6.08;66.58;95673.34;1740023;82;21748;-74
2021/03/10 04:47:43;;;;;;;8.33;4.73;;;;;;;-6.08;66.58;95673.34;1739904;82;21979;-74
2021/03/10 04:50:13;;;;;;;7.53;3.77;;;;;;;-6.01;66.12;95676.67;1741077;81;21735;-74
2021/03/10 04:52:43;;;;;;;8.73;4.67;;;;;;;-6.01;66.12;95676.67;1753956;81;21971;-74
2021/03/10 04:55:11;;;;;;;11.37;4.73;;;;;;;-5.80;65.69;95682.73;1754260;82;21917;-74
2021/03/10 04:57:40;;;;;;;7.87;4.03;;;;;;;-5.80;65.69;95682.73;1754243;81;21659;-74
2021/03/10 05:00:10;;;;;;;10.77;4.37;;;;;;;-5.72;65.53;95674.98;1754102;81;21611;-74
2021/03/10 05:02:39;;;;;;;7.87;4.97;;;;;;;-5.72;65.13;95685.27;1754392;82;21581;-74
2021/03/10 05:05:09;;;;;;;7.00;4.13;;;;;;;-5.67;64.99;95680.30;1754461;82;21716;-74
2021/03/10 05:07:37;;;;;;;6.50;4.30;;;;;;;-5.65;64.81;95683.83;1754115;82;21559;-74
2021/03/10 05:10:08;;;;;;;11.27;4.60;;;;;;;-5.62;64.64;95683.08;1754341;81;22001;-74
2021/03/10 05:12:36;;;;;;;8.40;3.97;;;;;;;-5.73;64.79;95686.47;1754179;82;21957;-74
2021/03/10 05:15:06;;;;;;;8.83;3.77;;;;;;;-5.73;64.79;95686.47;1754155;82;21623;-74
2021/03/10 05:17:36;;;;;;;10.30;4.27;;;;;;;-5.97;65.31;95685.88;1754270;81;21533;-74
2021/03/10 05:20:07;;;;;;;9.17;5.23;;;;;;;-5.97;65.31;95685.88;1754221;82;21604;-74
2021/03/10 05:22:36;;;;;;;8.60;4.50;;;;;;;-5.85;65.74;95687.20;1754091;82;21537;-74
2021/03/10 05:25:07;;;;;;;22.97;8.53;;;;;;;-5.70;67.18;95687.89;1754083;82;21651;-74
2021/03/10 05:27:35;;;;;;;20.40;8.27;;;;;;;-5.69;66.58;95694.80;1754178;81;22043;-74
2021/03/10 05:30:07;;;;;;;35.20;16.17;;;;;;;-5.69;66.58;95694.80;1754048;81;21588;-74
2021/03/10 05:32:38;;;;;;;53.25;21.00;;;;;;;-5.85;67.19;95685.91;1754215;82;21634;-74
2021/03/10 05:35:09;;;;;;;10.10;4.63;;;;;;;-5.69;66.48;95696.09;1754253;82;21126;-74
2021/03/10 05:37:38;;;;;;;9.60;4.73;;;;;;;-5.69;66.48;95696.09;1753973;82;21546;-74
2021/03/10 05:40:08;;;;;;;7.20;3.93;;;;;;;-5.54;67.52;95688.19;1754099;82;22299;-74
2021/03/10 05:42:42;;;;;;;20.37;9.70;;;;;;;-5.54;67.52;95688.19;1754291;82;21841;-74
2021/03/10 05:45:13;;;;;;;19.47;8.97;;;;;;;-5.36;68.27;95697.10;1754165;82;22243;-74
2021/03/10 05:47:41;;;;;;;57.30;24.27;;;;;;;-5.36;68.27;95697.10;1754069;82;22084;-74
2021/03/10 05:50:10;;;;;;;42.80;18.77;;;;;;;-5.37;68.46;95694.04;1754359;82;21843;-74
2021/03/10 05:52:41;;;;;;;49.93;21.07;;;;;;;-5.37;68.46;95694.04;1753969;81;22291;-74
2021/03/10 05:55:10;;;;;;;84.37;28.77;;;;;;;-5.31;68.27;95704.20;1754317;82;21788;-78
2021/03/10 05:57:41;;;;;;;64.23;23.43;;;;;;;-5.32;69.38;95688.27;1754007;82;22274;-76
2021/03/10 06:00:11;;;;;;;91.63;33.23;;;;;;;-5.24;69.15;95660.34;1754344;82;21850;-79
2021/03/10 06:02:40;;;;;;;58.53;26.63;;;;;;;-4.99;68.80;95702.11;1754211;82;21827;-76
2021/03/10 06:05:22;;;;;;;36.70;15.37;;;;;;;-5.05;68.69;95692.44;1754254;82;22294;-77
2021/03/10 06:08:06;;;;;;;39.27;16.33;;;;;;;-5.02;67.75;95695.55;1754058;81;21828;-68
2021/03/10 06:10:46;;;;;;;57.53;22.00;;;;;;;-4.92;67.41;95698.11;1754501;82;22373;-66
2021/03/10 06:13:26;;;;;;;49.58;21.05;;;;;;;-4.77;67.51;95711.61;1754428;82;21556;-66
2021/03/10 06:16:00;;;;;;;37.23;16.57;;;;;;;-4.42;66.22;95704.04;1754377;82;21138;-67
2021/03/10 06:18:36;;;;;;;61.97;24.90;;;;;;;-4.19;65.78;95707.94;1754374;82;21825;-64
2021/03/10 06:21:11;;;;;;;52.73;21.93;;;;;;;-4.04;64.28;95704.67;1754040;82;21840;-65
2021/03/10 06:23:55;;;;;;;35.93;15.70;;;;;;;-3.99;64.77;95701.86;1754475;82;21818;-69
2021/03/10 06:26:26;;;;;;;23.60;11.35;;;;;;;-3.88;64.32;95707.84;1754606;82;21958;-65
2021/03/10 06:28:56;;;;;;;60.37;26.30;;;;;;;-3.74;62.84;95706.67;1753894;82;21165;-67
2021/03/10 06:31:29;;;;;;;52.73;22.07;;;;;;;-3.61;62.97;95710.16;1754042;82;21840;-67
2021/03/10 06:34:09;;;;;;;36.35;17.25;;;;;;;-3.50;63.27;95715.33;1754506;82;21812;-65
2021/03/10 06:36:49;;;;;;;38.87;16.57;;;;;;;-3.34;63.24;95721.92;1754482;82;21280;-71
2021/03/10 06:39:27;;;;;;;58.83;22.13;;;;;;;-3.26;63.77;95722.20;1754374;82;21941;-70
2021/03/10 06:41:57;;;;;;;64.43;22.13;;;;;;;-3.10;63.17;95727.09;1754166;82;21797;-70
2021/03/10 06:44:28;;;;;;;59.07;20.20;;;;;;;-3.11;63.04;95714.12;1754157;82;21800;-69
2021/03/10 06:47:04;;;;;;;70.30;23.83;;;;;;;-3.06;62.59;95725.48;1754369;82;21121;-68
2021/03/10 06:49:34;;;;;;;63.80;22.50;;;;;;;-3.06;62.59;95725.48;1754203;82;21090;-70
2021/03/10 06:52:08;;;;;;;35.93;14.63;;;;;;;-2.95;61.90;95729.34;1753842;81;21184;-72
2021/03/10 06:54:37;;;;;;;42.77;17.47;;;;;;;-2.95;61.90;95729.34;1754448;82;21251;-73
2021/03/10 06:57:08;;;;;;;42.90;17.57;;;;;;;-2.91;62.66;95710.53;1754321;82;21575;-73
2021/03/10 06:59:50;;;;;;;30.57;10.50;;;;;;;-2.83;62.18;95727.58;1754333;82;21153;-70
2021/03/10 07:02:25;;;;;;;52.30;20.90;;;;;;;-2.79;62.89;95725.58;1754109;82;21121;-76
2021/03/10 07:04:55;;;;;;;60.70;22.97;;;;;;;-2.67;63.90;95726.01;1754000;82;21106;-70
2021/03/10 07:07:26;;;;;;;59.63;20.33;;;;;;;-2.37;63.33;95720.08;1753945;82;21142;-71
2021/03/10 07:09:54;;;;;;;54.40;21.33;;;;;;;-2.15;63.47;95721.66;1754219;82;21572;-71
2021/03/10 07:12:25;;;;;;;43.33;17.80;;;;;;;-2.06;63.02;95727.56;1754152;82;21540;-74
2021/03/10 07:14:53;;;;;;;42.90;20.27;;;;;;;-1.90;62.42;95725.90;1754201;82;21098;-74
2021/03/10 07:17:26;;;;;;;44.40;19.10;;;;;;;-1.71;62.33;95729.95;1754296;82;21162;-72
2021/03/10 07:19:51;;;;;;;31.93;12.60;;;;;;;-1.53;61.80;95731.78;1754058;81;21165;-69
2021/03/10 07:22:35;;;;;;;13.00;7.77;;;;;;;-1.34;59.78;95730.60;1754096;82;21615;-71
2021/03/10 07:25:10;;;;;;;11.28;6.58;;;;;;;-1.26;56.95;95728.66;1754560;82;21094;-72
2021/03/10 07:27:52;;;;;;;15.90;8.47;;;;;;;-1.20;55.64;95724.97;1754130;82;21571;-70
2021/03/10 07:30:36;;;;;;;10.90;7.10;;;;;;;-1.13;56.58;95726.90;1754386;82;21133;-68
2021/03/10 07:33:20;;;;;;;12.30;6.27;;;;;;;-1.07;55.48;95728.35;1728371;82;21153;-66
2021/03/10 07:36:01;;;;;;;15.70;8.80;;;;;;;-1.04;54.66;95721.95;1748888;82;21165;-68
2021/03/10 07:38:38;;;;;;;28.53;14.10;;;;;;;-0.88;54.22;95721.56;1754325;82;21501;-69
2021/03/10 07:41:12;;;;;;;11.43;6.77;;;;;;;-0.81;53.46;95722.58;1754204;82;21150;-71
2021/03/10 07:43:47;;;;;;;12.33;6.47;;;;;;;-0.64;52.75;95715.27;1754296;81;21125;-79
2021/03/10 07:46:29;;;;;;;9.30;5.40;;;;;;;-0.60;51.31;95722.72;1754210;82;21552;-75
2021/03/10 07:49:05;;;;;;;14.77;7.83;;;;;;;-0.50;52.11;95721.70;1754293;82;21501;-70
2021/03/10 07:51:36;;;;;;;11.90;7.13;;;;;;;-0.46;50.60;95721.34;1748530;81;21173;-70
2021/03/10 07:54:25;;;;;;;11.63;6.53;;;;;;;-0.44;49.43;95717.95;1740499;82;21130;-73
2021/03/10 07:57:12;;;;;;;8.93;5.33;;;;;;;-0.44;50.12;95717.08;1740056;82;21105;-68
2021/03/10 07:59:53;;;;;;;7.90;4.30;;;;;;;-0.37;48.91;95716.41;1740344;82;21276;-69
2021/03/10 08:02:21;;;;;;;8.57;4.73;;;;;;;-0.31;48.78;95724.32;1740088;82;21150;-67
2021/03/10 08:04:55;;;;;;;23.13;12.87;;;;;;;-0.32;48.30;95710.05;1740279;82;21643;-67
2021/03/10 08:07:26;;;;;;;8.20;5.10;;;;;;;-0.33;47.55;95717.34;1740139;82;21142;-67
2021/03/10 08:09:54;;;;;;;10.73;5.00;;;;;;;-0.31;47.53;95711.78;1740186;82;21580;-69
2021/03/10 08:12:35;;;;;;;10.50;5.80;;;;;;;-0.26;46.31;95708.89;1740272;82;21161;-67
2021/03/10 08:15:06;;;;;;;8.33;4.50;;;;;;;-0.28;45.58;95709.27;1740291;82;21138;-69
2021/03/10 08:17:34;;;;;;;14.97;7.83;;;;;;;-0.22;45.34;95708.13;1740171;82;21533;-66
2021/03/10 08:20:05;;;;;;;17.03;7.90;;;;;;;-0.29;44.86;95707.52;1740429;82;21166;-70
2021/03/10 08:22:34;;;;;;;13.27;6.47;;;;;;;-0.35;44.59;95705.66;1740149;82;21272;-71
2021/03/10 08:25:05;;;;;;;13.03;6.73;;;;;;;-0.35;44.09;95710.84;1740246;82;21284;-68
2021/03/10 08:27:38;;;;;;;15.90;7.27;;;;;;;-0.29;44.26;95713.58;1740080;82;21122;-67
2021/03/10 08:30:14;;;;;;;10.73;5.53;;;;;;;-0.12;45.24;95709.24;1739811;82;21142;-70
2021/03/10 08:32:42;;;;;;;11.57;5.50;;;;;;;-0.03;43.46;95708.14;1740176;82;21690;-72
2021/03/10 08:35:19;;;;;;;10.97;5.10;;;;;;;0.09;43.35;95708.86;1740275;82;21106;-72
2021/03/10 08:37:55;;;;;;;9.20;5.27;;;;;;;0.25;42.90;95710.95;1739822;82;21122;-70
2021/03/10 08:40:26;;;;;;;9.43;4.70;;;;;;;0.38;42.08;95705.65;1740238;82;21304;-72
2021/03/10 08:42:59;;;;;;;12.43;5.33;;;;;;;0.50;41.02;95711.08;1739789;82;21217;-70
2021/03/10 08:45:30;;;;;;;8.77;4.73;;;;;;;0.58;40.77;95709.55;1740063;82;21241;-67
2021/03/10 08:48:05;;;;;;;7.90;3.40;;;;;;;0.81;40.48;95699.64;1740182;82;21245;-70
2021/03/10 08:50:38;;;;;;;9.83;5.77;;;;;;;0.94;39.82;95699.47;1740072;82;21130;-72
2021/03/10 08:53:09;;;;;;;8.68;4.53;;;;;;;1.23;40.80;95699.14;1740055;81;21303;-73
2021/03/10 08:55:37;;;;;;;6.83;3.90;;;;;;;1.30;38.63;95696.69;1740267;82;21126;-72
2021/03/10 08:58:15;;;;;;;8.30;5.07;;;;;;;1.50;39.09;95694.45;1740154;82;21529;-68
2021/03/10 09:00:44;;;;;;;7.53;4.77;;;;;;;1.59;38.03;95691.55;1740368;82;21711;-68
2021/03/10 09:03:15;;;;;;;6.50;4.20;;;;;;;1.63;38.32;95683.84;1740041;82;21130;-75
2021/03/10 09:05:47;;;;;;;17.50;6.87;;;;;;;1.54;38.32;95678.50;1739911;82;21129;-72
2021/03/10 09:08:21;;;;;;;20.23;8.47;;;;;;;1.63;39.59;95676.47;1740073;82;21284;-75
2021/03/10 09:10:52;;;;;;;10.43;4.40;;;;;;;1.90;39.05;95682.56;1740324;82;21288;-69
2021/03/10 09:13:25;;;;;;;7.83;4.57;;;;;;;2.06;37.65;95674.13;1724695;81;21147;-68
2021/03/10 09:15:53;;;;;;;22.90;9.43;;;;;;;2.27;38.42;95676.60;1740144;82;21272;-68
2021/03/10 09:18:35;;;;;;;9.70;4.73;;;;;;;2.46;39.85;95668.64;1739639;82;21296;-68
2021/03/10 09:21:05;;;;;;;7.37;4.60;;;;;;;2.57;35.81;95664.44;1740478;82;21158;-73
2021/03/10 09:23:35;;;;;;;8.40;5.00;;;;;;;2.71;36.88;95671.14;1739689;82;21268;-68
2021/03/10 09:26:06;;;;;;;9.43;5.00;;;;;;;2.74;35.39;95672.48;1740047;82;21125;-69
2021/03/10 09:28:40;;;;;;;8.77;4.73;;;;;;;2.91;35.69;95670.96;1730349;82;21138;-76
2021/03/10 09:31:16;;;;;;;9.07;4.83;;;;;;;2.84;34.70;95676.95;1724700;82;21155;-80
2021/03/10 09:33:46;;;;;;;5.63;3.07;;;;;;;2.84;35.76;95671.73;1723943;82;21281;-71
2021/03/10 09:36:24;;;;;;;9.37;5.30;;;;;;;2.72;35.59;95667.67;1715574;83;21139;-70
2021/03/10 09:38:54;;;;;;;7.00;4.03;;;;;;;2.76;34.78;95669.03;1725398;82;21269;-71
2021/03/10 09:41:26;;;;;;;8.63;5.00;;;;;;;2.54;33.10;95673.09;1724701;82;21740;-66
2021/03/10 09:44:08;;;;;;;8.83;4.67;;;;;;;2.50;33.22;95670.01;1725909;83;21133;-73
2021/03/10 09:46:41;;;;;;;9.07;5.00;;;;;;;2.54;33.94;95670.91;1725608;83;21127;-79
2021/03/10 09:49:10;;;;;;;10.38;5.28;;;;;;;2.58;33.58;95668.81;1725664;83;21265;-76
2021/03/10 09:51:51;;;;;;;5.53;3.13;;;;;;;2.74;33.72;95669.88;1725587;82;21123;-71
2021/03/10 09:54:30;;;;;;;7.07;5.27;;;;;;;2.92;34.46;95667.48;1725408;82;21159;-70
2021/03/10 09:56:59;;;;;;;5.97;3.57;;;;;;;2.99;33.02;95669.31;1725415;82;21158;-78
2021/03/10 09:59:33;;;;;;;7.33;4.67;;;;;;;2.97;32.77;95666.24;1724854;82;21301;-68
2021/03/10 10:02:03;;;;;;;10.13;6.47;;;;;;;2.98;34.38;95668.88;1725039;82;21164;-74
2021/03/10 10:04:33;;;;;;;9.87;5.53;;;;;;;3.17;33.09;95667.78;1725433;82;21148;-74
2021/03/10 10:07:02;;;;;;;10.73;5.60;;;;;;;3.23;33.80;95663.52;1725783;83;21163;-73
2021/03/10 10:09:32;;;;;;;11.00;5.90;;;;;;;3.32;32.71;95669.24;1724567;82;21596;-74
2021/03/10 10:12:03;;;;;;;10.70;6.07;;;;;;;3.29;31.73;95665.31;1725665;82;21147;-74
2021/03/10 10:14:33;;;;;;;9.17;5.57;;;;;;;3.35;32.24;95663.19;1725059;82;21143;-73
2021/03/10 10:17:01;;;;;;;8.40;5.30;;;;;;;3.53;32.02;95659.48;1725500;83;21171;-73
2021/03/10 10:19:29;;;;;;;9.43;5.20;;;;;;;3.73;31.13;95663.58;1725857;83;21305;-73
2021/03/10 10:21:57;;;;;;;8.83;5.20;;;;;;;3.71;31.02;95661.38;1715398;83;21159;-73
2021/03/10 10:24:25;;;;;;;9.00;4.20;;;;;;;3.90;31.97;95648.03;1725446;83;21120;-73
2021/03/10 10:26:53;;;;;;;7.70;4.10;;;;;;;4.02;31.57;95649.87;1725866;83;21285;-73
2021/03/10 10:29:23;;;;;;;8.77;4.93;;;;;;;4.16;32.38;95657.39;1725538;82;21317;-74
2021/03/10 10:31:51;;;;;;;6.93;4.80;;;;;;;4.35;32.10;95647.92;1725577;82;21154;-73
2021/03/10 10:34:21;;;;;;;7.47;4.70;;;;;;;4.32;32.45;95654.00;1726085;82;21171;-71
2021/03/10 10:36:50;;;;;;;10.27;5.97;;;;;;;4.57;32.93;95653.30;1725566;83;21773;-71
2021/03/10 10:39:21;;;;;;;12.33;6.37;;;;;;;4.58;31.09;95648.05;1723898;83;21704;-71
2021/03/10 10:41:49;;;;;;;8.33;4.27;;;;;;;4.48;30.53;95652.35;1726014;83;21159;-70
2021/03/10 10:44:19;;;;;;;9.93;5.80;;;;;;;4.57;30.47;95655.91;1725517;82;21156;-70
2021/03/10 10:46:47;;;;;;;8.30;4.50;;;;;;;4.76;30.97;95647.27;1725688;83;21159;-70
2021/03/10 10:49:15;;;;;;;9.53;5.30;;;;;;;4.66;29.87;95650.70;1725573;83;21132;-70
2021/03/10 10:51:44;;;;;;;10.47;5.67;;;;;;;4.62;30.24;95646.35;1725473;83;21143;-70
2021/03/10 10:54:21;;;;;;;10.80;6.07;;;;;;;4.69;29.62;95650.75;1725307;82;21297;-71
2021/03/10 10:56:49;;;;;;;9.53;5.93;;;;;;;4.98;30.53;95643.88;1725832;82;21285;-70
2021/03/10 10:59:24;;;;;;;7.73;4.80;;;;;;;5.21;28.81;95643.09;1725352;82;21119;-70
2021/03/10 11:01:53;;;;;;;10.37;6.00;;;;;;;5.67;30.23;95630.52;1725797;83;21159;-70
2021/03/10 11:04:21;;;;;;;13.87;7.23;;;;;;;6.32;30.81;95617.87;1725811;83;21159;-70
2021/03/10 11:06:49;;;;;;;10.13;6.43;;;;;;;6.74;28.42;95610.78;1725801;82;21297;-71
2021/03/10 11:09:17;;;;;;;8.77;6.37;;;;;;;7.04;27.88;95615.03;1725732;82;21293;-71
2021/03/10 11:11:46;;;;;;;9.47;6.23;;;;;;;7.47;26.62;95620.05;1725720;83;21344;-70
2021/03/10 11:14:14;;;;;;;9.33;6.43;;;;;;;7.37;24.65;95615.29;1725819;83;21183;-70
2021/03/10 11:16:44;;;;;;;10.97;6.20;;;;;;;7.22;24.41;95619.31;1725320;82;21282;-71
2021/03/10 11:19:13;;;;;;;10.70;6.40;;;;;;;6.78;24.82;95617.77;1724996;82;21748;-70
2021/03/10 11:21:42;;;;;;;9.53;6.63;;;;;;;7.00;25.81;95611.98;1715346;83;21148;-71
2021/03/10 11:24:12;;;;;;;8.23;5.90;;;;;;;7.49;25.27;95607.80;1725476;82;21590;-71
2021/03/10 11:26:41;;;;;;;9.87;6.50;;;;;;;7.99;26.18;95595.17;1725492;83;21167;-71
2021/03/10 11:29:11;;;;;;;11.43;7.63;;;;;;;8.32;23.60;95586.10;1725767;83;21634;-71
2021/03/10 11:31:39;;;;;;;9.73;6.40;;;;;;;8.20;23.29;95591.47;1715618;83;21149;-71
2021/03/10 11:34:07;;;;;;;11.80;7.43;;;;;;;7.75;23.02;95597.55;1725662;83;21735;-71
2021/03/10 11:36:36;;;;;;;12.13;6.37;;;;;;;8.23;24.10;95593.61;1725705;83;21154;-71
2021/03/10 11:39:07;;;;;;;11.80;6.80;;;;;;;8.41;24.27;95593.04;1725223;83;21305;-70
2021/03/10 11:41:37;;;;;;;10.30;7.10;;;;;;;8.78;23.79;95590.89;1725696;83;21293;-71
2021/03/10 11:44:07;;;;;;;10.93;7.33;;;;;;;9.26;23.76;95581.08;1725722;83;21152;-70
2021/03/10 11:46:36;;;;;;;8.27;6.30;;;;;;;9.59;24.04;95584.98;1725641;83;21712;-71
2021/03/10 11:49:05;;;;;;;11.53;7.57;;;;;;;9.16;22.12;95578.14;1725533;82;21608;-70